createdAt,value
2019-02-25T00:00:14.546Z,4.21
2019-02-25T00:02:42.869Z,4.01
2019-02-25T00:05:12.063Z,3.89
2019-02-25T00:07:40.374Z,3.88
2019-02-25T00:10:09.744Z,3.71
2019-02-25T00:12:38.041Z,3.65
2019-02-25T00:15:08.313Z,3.68
2019-02-25T00:17:39.405Z,3.64
2019-02-25T00:20:11.333Z,3.60
2019-02-25T00:22:39.637Z,3.60
2019-02-25T00:25:11.511Z,3.60
2019-02-25T00:27:39.823Z,3.58
2019-02-25T00:30:11.358Z,3.52
2019-02-25T00:32:39.664Z,3.52
2019-02-25T00:35:08.141Z,3.47
2019-02-25T00:37:36.618Z,3.59
2019-02-25T00:40:06.370Z,3.43
2019-02-25T00:42:35.199Z,3.34
2019-02-25T00:45:06.364Z,3.57
2019-02-25T00:47:34.673Z,3.47
2019-02-25T00:50:03.973Z,3.43
2019-02-25T00:52:32.432Z,3.16
2019-02-25T00:55:00.784Z,3.18
2019-02-25T00:57:29.088Z,3.10
2019-02-25T00:59:57.461Z,3.14
2019-02-25T01:02:25.821Z,3.05
2019-02-25T01:04:54.212Z,3.01
2019-02-25T01:07:22.577Z,2.90
2019-02-25T01:09:51.010Z,3.03
2019-02-25T01:12:19.403Z,2.96
2019-02-25T01:14:47.785Z,3.10
2019-02-25T01:17:16.147Z,3.05
2019-02-25T01:19:44.472Z,3.02
2019-02-25T01:22:12.812Z,2.76
2019-02-25T01:24:41.129Z,2.69
2019-02-25T01:27:09.484Z,2.62
2019-02-25T01:29:37.811Z,2.77
2019-02-25T01:32:06.176Z,2.88
2019-02-25T01:34:34.510Z,2.62
2019-02-25T01:37:02.887Z,2.62
2019-02-25T01:39:31.235Z,2.52
2019-02-25T01:41:59.706Z,2.53
2019-02-25T01:44:28.041Z,2.60
2019-02-25T01:46:56.492Z,2.64
2019-02-25T01:49:24.834Z,2.47
2019-02-25T01:51:53.625Z,2.55
2019-02-25T01:54:21.936Z,2.47
2019-02-25T01:56:50.269Z,2.50
2019-02-25T01:59:18.588Z,2.40
2019-02-25T02:01:46.924Z,2.43
2019-02-25T02:04:15.282Z,2.37
2019-02-25T02:06:43.681Z,2.42
2019-02-25T02:09:12.866Z,2.46
2019-02-25T02:11:41.230Z,2.46
2019-02-25T02:14:10.013Z,2.52
2019-02-25T02:16:38.332Z,2.63
2019-02-25T02:19:06.700Z,2.54
2019-02-25T02:21:35.141Z,2.53
2019-02-25T02:24:03.525Z,2.60
2019-02-25T02:26:32.904Z,2.48
2019-02-25T02:29:01.257Z,2.42
2019-02-25T02:31:29.594Z,2.35
2019-02-25T02:33:57.964Z,2.24
2019-02-25T02:36:26.280Z,2.22
2019-02-25T02:38:54.631Z,2.24
2019-02-25T02:41:22.964Z,2.14
2019-02-25T02:43:51.310Z,2.10
2019-02-25T02:46:24.478Z,2.21
2019-02-25T02:48:56.457Z,2.14
2019-02-25T02:51:24.792Z,2.15
2019-02-25T02:53:53.146Z,2.08
2019-02-25T02:56:21.669Z,1.96
2019-02-25T02:58:49.990Z,2.03
2019-02-25T03:01:18.339Z,2.15
2019-02-25T03:03:47.644Z,2.19
2019-02-25T03:06:16.020Z,2.06
2019-02-25T03:08:44.377Z,1.97
2019-02-25T03:11:12.783Z,2.08
2019-02-25T03:13:41.134Z,2.12
2019-02-25T03:16:09.453Z,2.33
2019-02-25T03:18:37.813Z,2.24
2019-02-25T03:21:06.131Z,2.13
2019-02-25T03:23:34.468Z,2.17
2019-02-25T03:26:02.804Z,2.21
2019-02-25T03:28:31.097Z,2.12
2019-02-25T03:30:59.486Z,2.28
2019-02-25T03:33:27.792Z,2.27
2019-02-25T03:35:56.144Z,2.24
2019-02-25T03:38:24.486Z,2.36
2019-02-25T03:40:52.852Z,2.27
2019-02-25T03:43:21.215Z,2.26
2019-02-25T03:45:49.561Z,2.36
2019-02-25T03:48:17.883Z,2.37
2019-02-25T03:50:46.204Z,2.45
2019-02-25T03:53:14.521Z,2.25
2019-02-25T03:55:42.950Z,2.16
2019-02-25T03:58:11.943Z,2.09
2019-02-25T04:00:40.258Z,2.02
2019-02-25T04:03:09.911Z,2.01
2019-02-25T04:05:38.373Z,2.11
2019-02-25T04:08:06.745Z,1.99
2019-02-25T04:10:35.352Z,1.94
2019-02-25T04:13:03.748Z,1.96
2019-02-25T04:15:34.055Z,1.88
2019-02-25T04:18:02.469Z,1.82
2019-02-25T04:20:30.826Z,1.78
2019-02-25T04:22:59.221Z,1.71
2019-02-25T04:25:27.514Z,1.74
2019-02-25T04:27:55.852Z,1.69
2019-02-25T04:30:24.256Z,1.72
2019-02-25T04:32:52.633Z,1.75
2019-02-25T04:35:20.973Z,1.71
2019-02-25T04:37:49.369Z,1.59
2019-02-25T04:40:17.787Z,1.74
2019-02-25T04:42:46.129Z,1.70
2019-02-25T04:45:18.035Z,1.65
2019-02-25T04:47:46.377Z,1.55
2019-02-25T04:50:15.393Z,1.44
2019-02-25T04:52:43.854Z,1.48
2019-02-25T04:55:13.906Z,1.44
2019-02-25T04:57:42.458Z,1.49
2019-02-25T05:00:13.175Z,1.52
2019-02-25T05:02:41.554Z,1.33
2019-02-25T05:05:10.181Z,1.19
2019-02-25T05:07:38.527Z,1.24
2019-02-25T05:10:08.491Z,1.21
2019-02-25T05:12:37.117Z,1.34
2019-02-25T05:15:06.743Z,1.32
2019-02-25T05:17:35.930Z,1.06
2019-02-25T05:20:06.502Z,0.93
2019-02-25T05:22:34.851Z,1.17
2019-02-25T05:25:08.990Z,1.23
2019-02-25T05:27:37.312Z,1.04
2019-02-25T05:30:08.972Z,0.88
2019-02-25T05:32:37.391Z,0.91
2019-02-25T05:35:08.054Z,0.77
2019-02-25T05:37:36.384Z,0.71
2019-02-25T05:40:09.315Z,0.85
2019-02-25T05:42:37.737Z,0.80
2019-02-25T05:45:08.150Z,0.70
2019-02-25T05:47:36.838Z,0.88
2019-02-25T05:50:07.885Z,0.83
2019-02-25T05:52:36.221Z,0.76
2019-02-25T05:55:08.003Z,0.72
2019-02-25T05:57:36.958Z,0.73
2019-02-25T06:00:09.695Z,0.78
2019-02-25T06:02:38.035Z,0.85
2019-02-25T06:05:07.414Z,1.01
2019-02-25T06:07:36.111Z,0.93
2019-02-25T06:10:07.153Z,0.86
2019-02-25T06:12:35.509Z,1.04
2019-02-25T06:15:08.828Z,1.14
2019-02-25T06:17:37.170Z,1.22
2019-02-25T06:20:09.446Z,1.16
2019-02-25T06:22:37.797Z,1.17
2019-02-25T06:25:08.611Z,1.27
2019-02-25T06:27:36.987Z,1.28
2019-02-25T06:30:09.420Z,1.28
2019-02-25T06:32:37.725Z,1.44
2019-02-25T06:35:07.700Z,1.83
2019-02-25T06:37:36.018Z,2.57
2019-02-25T06:40:06.947Z,3.33
2019-02-25T06:42:35.310Z,4.47
2019-02-25T06:45:06.194Z,5.02
2019-02-25T06:47:34.958Z,5.79
2019-02-25T06:50:04.430Z,6.44
2019-02-25T06:52:32.777Z,6.80
2019-02-25T06:55:01.137Z,7.46
2019-02-25T06:57:29.550Z,7.92
2019-02-25T06:59:57.860Z,7.37
2019-02-25T07:02:26.255Z,8.08
2019-02-25T07:04:57.123Z,8.11
2019-02-25T07:07:28.776Z,7.93
2019-02-25T07:09:59.350Z,6.74
2019-02-25T07:12:29.778Z,6.54
2019-02-25T07:14:59.446Z,6.50
2019-02-25T07:17:28.160Z,7.48
2019-02-25T07:19:59.155Z,6.32
2019-02-25T07:22:29.599Z,7.09
2019-02-25T07:25:00.415Z,6.27
2019-02-25T07:27:31.123Z,6.33
2019-02-25T07:30:01.804Z,6.56
2019-02-25T07:32:32.964Z,6.48
2019-02-25T07:35:02.642Z,6.75
2019-02-25T07:37:34.606Z,6.82
2019-02-25T07:40:06.694Z,6.61
2019-02-25T07:42:35.980Z,6.61
2019-02-25T07:45:11.738Z,7.71
2019-02-25T07:47:43.902Z,7.33
2019-02-25T07:50:18.173Z,7.67
2019-02-25T07:52:48.477Z,8.51
2019-02-25T07:55:21.589Z,7.44
2019-02-25T07:57:53.855Z,6.79
2019-02-25T08:00:25.858Z,7.72
2019-02-25T08:02:56.982Z,8.36
2019-02-25T08:08:50.070Z,7.36
2019-02-25T08:11:21.886Z,7.57
2019-02-25T08:13:53.174Z,6.90
2019-02-25T08:16:24.405Z,8.89
2019-02-25T08:18:55.609Z,8.28
2019-02-25T08:21:27.270Z,9.50
2019-02-25T08:23:59.041Z,9.20
2019-02-25T08:26:30.487Z,8.12
2019-02-25T08:29:08.419Z,7.77
2019-02-25T08:31:38.156Z,8.20
2019-02-25T08:34:18.159Z,8.48
2019-02-25T08:36:45.844Z,8.75
2019-02-25T08:39:17.040Z,8.70
2019-02-25T08:41:48.080Z,7.32
2019-02-25T08:44:19.333Z,8.29
2019-02-25T08:46:50.580Z,7.88
2019-02-25T08:49:21.886Z,8.23
2019-02-25T08:51:51.572Z,9.54
2019-02-25T08:54:21.220Z,8.25
2019-02-25T08:56:50.872Z,7.37
2019-02-25T08:59:20.637Z,7.92
2019-02-25T09:01:50.333Z,7.90
2019-02-25T09:04:19.865Z,7.74
2019-02-25T09:06:49.504Z,8.14
2019-02-25T09:09:19.111Z,7.42
2019-02-25T09:11:48.699Z,7.84
2019-02-25T09:14:18.256Z,7.83
2019-02-25T09:16:47.580Z,7.61
2019-02-25T09:19:17.323Z,7.84
2019-02-25T09:21:46.911Z,8.00
2019-02-25T09:24:16.440Z,7.94
2019-02-25T09:26:45.991Z,8.07
2019-02-25T09:29:15.440Z,8.30
2019-02-25T09:31:45.041Z,8.41
2019-02-25T09:34:14.472Z,8.65
2019-02-25T09:36:44.012Z,8.57
2019-02-25T09:39:16.693Z,8.88
2019-02-25T09:41:46.682Z,8.44
2019-02-25T09:44:16.192Z,8.33
2019-02-25T09:46:45.823Z,8.83
2019-02-25T09:49:15.268Z,8.91
2019-02-25T09:51:44.906Z,9.09
2019-02-25T09:54:14.397Z,9.37
2019-02-25T09:56:43.977Z,9.52
2019-02-25T09:59:13.454Z,9.55
2019-02-25T10:01:43.204Z,9.40
2019-02-25T10:04:12.746Z,8.97
2019-02-25T10:06:42.239Z,9.09
2019-02-25T10:09:11.820Z,9.58
2019-02-25T10:11:41.534Z,9.31
2019-02-25T10:14:11.144Z,9.62
2019-02-25T10:16:40.778Z,9.49
2019-02-25T10:19:10.355Z,9.57
2019-02-25T10:21:39.883Z,9.15
2019-02-25T10:24:10.216Z,9.70
2019-02-25T10:26:42.752Z,9.89
2019-02-25T10:29:12.294Z,9.83
2019-02-25T10:31:43.713Z,9.99
2019-02-25T10:34:13.041Z,10.24
2019-02-25T10:36:44.079Z,10.40
2019-02-25T10:39:15.532Z,10.25
2019-02-25T10:41:44.951Z,10.26
2019-02-25T10:44:14.401Z,10.42
2019-02-25T10:46:44.959Z,10.16
2019-02-25T10:49:15.493Z,10.21
2019-02-25T10:51:45.638Z,10.35
2019-02-25T10:54:16.916Z,10.36
2019-02-25T10:56:49.814Z,10.64
2019-02-25T10:59:19.562Z,10.88
2019-02-25T11:01:49.010Z,10.99
2019-02-25T11:04:20.026Z,11.20
2019-02-25T11:06:49.959Z,11.34
2019-02-25T11:09:21.402Z,11.42
2019-02-25T11:11:52.771Z,11.16
2019-02-25T11:14:22.432Z,11.10
2019-02-25T11:16:52.978Z,10.96
2019-02-25T11:19:22.770Z,11.20
2019-02-25T11:21:53.200Z,11.00
2019-02-25T11:24:23.368Z,10.87
2019-02-25T11:26:53.596Z,11.07
2019-02-25T11:29:23.126Z,11.28
2019-02-25T11:31:53.563Z,11.41
2019-02-25T11:34:23.766Z,11.72
2019-02-25T11:36:54.890Z,11.96
2019-02-25T11:39:25.295Z,11.71
2019-02-25T11:41:55.505Z,11.57
2019-02-25T11:44:26.154Z,11.96
2019-02-25T11:46:56.228Z,11.88
2019-02-25T11:49:25.775Z,12.24
2019-02-25T11:51:55.351Z,12.29
2019-02-25T11:54:24.853Z,12.26
2019-02-25T11:56:54.319Z,12.39
2019-02-25T11:59:24.409Z,12.40
2019-02-25T12:01:53.875Z,12.49
2019-02-25T12:04:23.340Z,12.49
2019-02-25T12:06:52.878Z,12.69
2019-02-25T12:09:22.428Z,12.84
2019-02-25T12:11:51.989Z,13.03
2019-02-25T12:14:21.482Z,13.05
2019-02-25T12:16:51.148Z,12.85
2019-02-25T12:19:21.595Z,12.86
2019-02-25T12:21:51.113Z,13.12
2019-02-25T12:24:20.760Z,13.06
2019-02-25T12:26:50.353Z,13.05
2019-02-25T12:29:19.865Z,13.07
2019-02-25T12:31:49.460Z,12.90
2019-02-25T12:34:18.913Z,12.98
2019-02-25T12:39:10.010Z,13.13
2019-02-25T12:41:39.670Z,12.96
2019-02-25T12:44:09.437Z,13.18
2019-02-25T12:46:39.701Z,13.39
2019-02-25T12:49:09.735Z,13.32
2019-02-25T12:51:39.399Z,13.11
2019-02-25T12:54:09.093Z,13.55
2019-02-25T12:56:38.657Z,13.75
2019-02-25T12:59:08.483Z,13.80
2019-02-25T13:01:37.951Z,13.86
2019-02-25T13:04:07.796Z,13.87
2019-02-25T13:06:37.273Z,13.96
2019-02-25T13:09:09.955Z,13.82
2019-02-25T13:11:39.975Z,13.78
2019-02-25T13:14:09.841Z,14.14
2019-02-25T13:16:39.451Z,14.08
2019-02-25T13:19:09.024Z,13.73
2019-02-25T13:21:38.515Z,13.92
2019-02-25T13:24:09.905Z,13.74
2019-02-25T13:26:39.640Z,13.74
2019-02-25T13:29:09.400Z,13.94
2019-02-25T13:31:38.870Z,14.25
2019-02-25T13:34:08.621Z,14.35
2019-02-25T13:36:38.179Z,14.55
2019-02-25T13:39:08.484Z,14.61
2019-02-25T13:41:37.948Z,14.41
2019-02-25T13:44:07.646Z,14.27
2019-02-25T13:46:37.111Z,14.52
2019-02-25T13:49:06.998Z,14.67
2019-02-25T13:51:36.173Z,14.32
2019-02-25T13:54:05.809Z,14.55
2019-02-25T13:56:35.332Z,14.56
2019-02-25T13:59:05.046Z,14.80
2019-02-25T14:01:34.642Z,14.87
2019-02-25T14:04:04.261Z,14.91
2019-02-25T14:06:33.744Z,14.91
2019-02-25T14:09:04.845Z,14.94
2019-02-25T14:11:34.381Z,14.93
2019-02-25T14:14:04.116Z,14.73
2019-02-25T14:16:33.733Z,14.85
2019-02-25T14:19:04.733Z,15.10
2019-02-25T14:21:36.339Z,15.14
2019-02-25T14:24:05.706Z,15.20
2019-02-25T14:26:35.160Z,15.28
2019-02-25T14:29:07.106Z,15.49
2019-02-25T14:31:36.822Z,15.50
2019-02-25T14:34:06.563Z,15.44
2019-02-25T14:36:36.523Z,15.39
2019-02-25T14:39:09.169Z,15.40
2019-02-25T14:41:38.780Z,15.40
2019-02-25T14:44:08.459Z,15.35
2019-02-25T14:46:37.934Z,15.28
2019-02-25T14:49:08.300Z,15.44
2019-02-25T14:51:37.853Z,15.47
2019-02-25T14:54:07.847Z,15.22
2019-02-25T14:56:37.481Z,15.31
2019-02-25T14:59:07.856Z,15.19
2019-02-25T15:01:38.537Z,15.25
2019-02-25T15:04:08.177Z,15.07
2019-02-25T15:06:37.783Z,15.30
2019-02-25T15:09:11.897Z,15.43
2019-02-25T15:11:39.725Z,15.34
2019-02-25T15:14:10.687Z,15.52
2019-02-25T15:16:40.797Z,15.57
2019-02-25T15:19:10.354Z,15.54
2019-02-25T15:21:42.999Z,15.58
2019-02-25T15:24:12.640Z,15.52
2019-02-25T15:26:43.314Z,15.70
2019-02-25T15:29:13.031Z,15.77
2019-02-25T15:31:44.403Z,15.65
2019-02-25T15:34:15.050Z,15.74
2019-02-25T15:36:45.095Z,15.80
2019-02-25T15:39:14.694Z,15.69
2019-02-25T15:41:46.291Z,15.58
2019-02-25T15:44:15.585Z,15.55
2019-02-25T15:46:45.062Z,15.47
2019-02-25T15:49:15.140Z,15.49
2019-02-25T15:51:45.759Z,15.34
2019-02-25T15:54:15.398Z,15.43
2019-02-25T15:56:45.010Z,15.59
2019-02-25T15:59:14.542Z,15.53
2019-02-25T16:01:44.635Z,15.45
2019-02-25T16:04:14.171Z,15.41
2019-02-25T16:06:44.193Z,15.18
2019-02-25T16:09:17.080Z,15.01
2019-02-25T16:11:47.447Z,15.02
2019-02-25T16:14:19.129Z,15.23
2019-02-25T16:16:48.665Z,14.93
2019-02-25T16:19:18.219Z,14.89
2019-02-25T16:21:47.422Z,14.76
2019-02-25T16:24:18.599Z,14.60
2019-02-25T16:26:48.824Z,14.76
2019-02-25T16:29:18.367Z,14.80
2019-02-25T16:31:49.049Z,14.90
2019-02-25T16:34:20.631Z,14.88
2019-02-25T16:36:51.947Z,14.75
2019-02-25T16:39:21.534Z,14.68
2019-02-25T16:41:51.222Z,14.62
2019-02-25T16:44:20.830Z,14.54
2019-02-25T16:46:50.852Z,14.38
2019-02-25T16:49:20.578Z,14.15
2019-02-25T16:51:51.010Z,13.96
2019-02-25T16:54:22.929Z,14.07
2019-02-25T16:56:52.834Z,13.97
2019-02-25T16:59:24.442Z,14.05
2019-02-25T17:01:55.844Z,13.98
2019-02-25T17:07:40.502Z,13.79
2019-02-25T17:10:13.508Z,13.61
2019-02-25T17:12:43.776Z,13.33
2019-02-25T17:15:17.420Z,13.17
2019-02-25T17:17:46.941Z,13.08
2019-02-25T17:20:17.485Z,13.14
2019-02-25T17:22:47.292Z,13.13
2019-02-25T17:25:17.212Z,13.15
2019-02-25T17:27:46.940Z,12.93
2019-02-25T17:30:20.196Z,12.84
2019-02-25T17:32:50.950Z,12.83
2019-02-25T17:35:23.574Z,12.84
2019-02-25T17:37:53.359Z,12.82
2019-02-25T17:40:23.975Z,12.75
2019-02-25T17:42:54.535Z,12.76
2019-02-25T17:45:27.704Z,12.71
2019-02-25T17:47:58.810Z,12.78
2019-02-25T17:50:30.649Z,12.81
2019-02-25T17:53:01.519Z,12.75
2019-02-25T17:55:34.492Z,12.78
2019-02-25T17:58:03.762Z,12.59
2019-02-25T18:00:37.427Z,12.53
2019-02-25T18:03:07.421Z,12.31
2019-02-25T18:05:38.761Z,12.11
2019-02-25T18:08:10.579Z,12.16
2019-02-25T18:10:43.108Z,12.22
2019-02-25T18:13:12.833Z,12.31
2019-02-25T18:15:42.765Z,12.47
2019-02-25T18:18:15.159Z,12.31
2019-02-25T18:20:43.995Z,12.10
2019-02-25T18:23:14.391Z,11.79
2019-02-25T18:25:44.329Z,11.47
2019-02-25T18:28:15.181Z,11.47
2019-02-25T18:30:45.527Z,11.77
2019-02-25T18:33:17.246Z,11.86
2019-02-25T18:36:08.840Z,11.79
2019-02-25T18:38:38.597Z,11.67
2019-02-25T18:41:09.245Z,11.74
2019-02-25T18:43:38.901Z,11.78
2019-02-25T18:46:08.181Z,11.71
2019-02-25T18:48:37.749Z,11.67
2019-02-25T18:51:07.264Z,11.65
2019-02-25T18:53:36.834Z,11.56
2019-02-25T18:56:06.520Z,11.60
2019-02-25T18:58:37.475Z,11.50
2019-02-25T19:01:09.698Z,11.40
2019-02-25T19:03:39.236Z,11.57
2019-02-25T19:08:59.039Z,11.67
2019-02-25T19:11:28.642Z,11.90
2019-02-25T19:14:01.844Z,12.11
2019-02-25T19:16:29.862Z,12.21
2019-02-25T19:19:03.622Z,12.16
2019-02-25T19:21:31.922Z,11.93
2019-02-25T19:24:03.590Z,11.68
2019-02-25T19:26:33.733Z,11.44
2019-02-25T19:29:03.268Z,11.13
2019-02-25T19:31:32.821Z,11.01
2019-02-25T19:34:02.409Z,10.93
2019-02-25T19:36:34.317Z,10.99
2019-02-25T19:39:07.287Z,10.82
2019-02-25T19:41:35.903Z,10.88
2019-02-25T19:44:05.994Z,10.62
2019-02-25T19:46:37.021Z,10.64
2019-02-25T19:49:06.809Z,10.57
2019-02-25T19:51:36.493Z,10.45
2019-02-25T19:54:07.070Z,10.45
2019-02-25T19:56:37.476Z,10.36
2019-02-25T19:59:07.982Z,10.36
2019-02-25T20:01:57.924Z,10.35
2019-02-25T20:04:29.203Z,10.28
2019-02-25T20:06:59.092Z,10.22
2019-02-25T20:09:30.146Z,10.05
2019-02-25T20:12:01.820Z,9.94
2019-02-25T20:14:31.450Z,9.83
2019-02-25T20:17:02.686Z,9.76
2019-02-25T20:19:32.377Z,9.70
2019-02-25T20:22:02.003Z,9.71
2019-02-25T20:24:31.550Z,9.65
2019-02-25T20:27:02.543Z,9.61
2019-02-25T20:29:33.883Z,9.66
2019-02-25T20:32:05.275Z,9.59
2019-02-25T20:34:34.908Z,9.52
2019-02-25T20:37:04.536Z,9.48
2019-02-25T20:39:35.814Z,9.33
2019-02-25T20:42:05.256Z,9.26
2019-02-25T20:44:35.014Z,9.44
2019-02-25T20:47:04.733Z,9.41
2019-02-25T20:49:34.227Z,9.34
2019-02-25T20:52:03.781Z,9.16
2019-02-25T20:54:37.810Z,9.20
2019-02-25T20:57:04.628Z,9.23
2019-02-25T20:59:34.901Z,9.20
2019-02-25T21:02:09.658Z,9.01
2019-02-25T21:04:36.737Z,8.86
2019-02-25T21:07:08.866Z,8.78
2019-02-25T21:09:40.509Z,8.70
2019-02-25T21:12:12.689Z,8.67
2019-02-25T21:14:44.965Z,8.60
2019-02-25T21:17:14.748Z,8.65
2019-02-25T21:19:44.424Z,8.73
2019-02-25T21:22:13.959Z,8.72
2019-02-25T21:24:43.425Z,8.64
2019-02-25T21:27:13.073Z,8.59
2019-02-25T21:29:42.754Z,8.56
2019-02-25T21:32:15.065Z,8.62
2019-02-25T21:34:46.209Z,8.73
2019-02-25T21:37:15.096Z,8.68
2019-02-25T21:39:44.687Z,8.69
2019-02-25T21:42:15.358Z,8.70
2019-02-25T21:44:46.449Z,8.65
2019-02-25T21:47:20.205Z,8.61
2019-02-25T21:49:47.884Z,8.57
2019-02-25T21:52:17.576Z,8.57
2019-02-25T21:54:47.239Z,8.56
2019-02-25T21:57:16.680Z,8.68
2019-02-25T21:59:46.213Z,8.56
2019-02-25T22:02:15.660Z,8.36
2019-02-25T22:04:47.289Z,8.40
2019-02-25T22:07:20.050Z,8.53
2019-02-25T22:09:47.477Z,8.35
2019-02-25T22:12:16.939Z,8.18
2019-02-25T22:14:47.706Z,8.07
2019-02-25T22:17:20.056Z,7.99
2019-02-25T22:19:50.231Z,8.01
2019-02-25T22:22:24.099Z,8.09
2019-02-25T22:24:52.061Z,8.10
2019-02-25T22:27:23.089Z,8.11
2019-02-25T22:29:52.712Z,7.92
2019-02-25T22:32:22.286Z,7.80
2019-02-25T22:34:51.916Z,7.68
2019-02-25T22:37:22.739Z,7.59
2019-02-25T22:39:54.530Z,7.44
2019-02-25T22:42:43.582Z,7.33
2019-02-25T22:45:18.795Z,7.27
2019-02-25T22:47:48.487Z,7.35
2019-02-25T22:50:18.106Z,7.42
2019-02-25T22:52:51.317Z,7.29
2019-02-25T22:55:22.148Z,7.18
2019-02-25T22:57:51.903Z,7.22
2019-02-25T23:01:01.308Z,7.05
2019-02-25T23:03:30.842Z,6.99
2019-02-25T23:06:23.080Z,6.93
2019-02-25T23:09:14.349Z,6.99
2019-02-25T23:12:02.879Z,6.88
2019-02-25T23:14:34.157Z,6.72
2019-02-25T23:17:06.455Z,6.67
2019-02-25T23:19:54.618Z,6.74
2019-02-25T23:22:24.103Z,6.92
2019-02-25T23:24:53.665Z,6.91
2019-02-25T23:27:23.153Z,6.76
2019-02-25T23:29:53.686Z,6.59
2019-02-25T23:32:23.339Z,6.32
2019-02-25T23:34:55.298Z,6.32
2019-02-25T23:37:25.734Z,6.36
2019-02-25T23:39:54.992Z,6.29
2019-02-25T23:42:24.624Z,6.46
2019-02-25T23:44:53.946Z,6.41
2019-02-25T23:47:26.903Z,6.35
2019-02-25T23:49:54.788Z,6.35
2019-02-25T23:52:25.700Z,6.34
2019-02-25T23:54:56.477Z,6.27
2019-02-25T23:57:28.286Z,6.13
2019-02-25T23:59:57.836Z,6.07
